Terminal Aerodrome Forecast
Issued by NWS Indianapolis, IN

Home | Current Version | Previous Version | Text Only | Print | Product List | Glossary On
Versions: 1 2 3 4 5 6 7 8 9 10 11 12 13 14 15 16 17 18 19 20 21 22 23 24 25 26
700
FTUS43 KIND 291727
TAFIND
TAF
KIND 291727Z 2918/3024 05006KT P6SM SCT025 BKN040
     FM292200 02006KT P6SM SCT035 BKN060
     FM300000 02005KT P6SM VCSH SCT035 BKN060
     FM300300 36005KT P6SM BKN040 PROB30 3003/3006 4SM -SHRA OVC007
     FM300600 01005KT P6SM BKN008 PROB30 3006/3008 4SM -SHRA OVC003
     FM300800 01005KT P6SM -SHRA OVC010
     FM300900 01005KT P6SM -SHRA OVC008
     FM301100 06004KT P6SM -SHRA OVC008
     FM301200 07004KT 5SM -SHRA OVC008
     FM301600 10005KT 6SM BR BKN018 OVC030
     FM301800 13006KT P6SM BKN035=

USA.gov is the U.S. government's official web portal to all federal, state and local government web resources and services.